sensor_id;sensor_type;location;lat;lon;timestamp;pressure;altitude;pressure_sealevel;temperature;humidity
59104;BME280;51449;51.676;5.812;2023-03-30T00:01:16;100563.59;;;13.43;69.03
59104;BME280;51449;51.676;5.812;2023-03-30T00:03:39;100561.22;;;13.41;69.43
59104;BME280;51449;51.676;5.812;2023-03-30T00:06:03;100513.34;;;13.41;69.96
59104;BME280;51449;51.676;5.812;2023-03-30T00:08:26;100524.84;;;13.43;70.10
59104;BME280;51449;51.676;5.812;2023-03-30T00:10:48;100537.91;;;13.42;70.00
59104;BME280;51449;51.676;5.812;2023-03-30T00:13:10;100534.78;;;13.44;69.72
59104;BME280;51449;51.676;5.812;2023-03-30T00:15:33;100535.19;;;13.46;70.04
59104;BME280;51449;51.676;5.812;2023-03-30T00:17:54;100529.66;;;13.46;70.07
59104;BME280;51449;51.676;5.812;2023-03-30T00:20:16;100528.59;;;13.51;69.51
59104;BME280;51449;51.676;5.812;2023-03-30T00:22:39;100531.72;;;13.49;69.39
59104;BME280;51449;51.676;5.812;2023-03-30T00:25:02;100521.09;;;13.51;69.35
59104;BME280;51449;51.676;5.812;2023-03-30T00:27:24;100519.94;;;13.52;69.10
59104;BME280;51449;51.676;5.812;2023-03-30T00:29:46;100513.59;;;13.52;68.96
59104;BME280;51449;51.676;5.812;2023-03-30T00:32:07;100512.72;;;13.47;68.32
59104;BME280;51449;51.676;5.812;2023-03-30T00:34:29;100503.69;;;13.51;68.47
59104;BME280;51449;51.676;5.812;2023-03-30T00:36:51;100511.34;;;13.57;68.65
59104;BME280;51449;51.676;5.812;2023-03-30T00:39:14;100513.66;;;13.55;68.48
59104;BME280;51449;51.676;5.812;2023-03-30T00:41:39;100502.97;;;13.54;68.10
59104;BME280;51449;51.676;5.812;2023-03-30T00:44:02;100501.06;;;13.58;68.09
59104;BME280;51449;51.676;5.812;2023-03-30T00:46:30;100499.97;;;13.62;68.17
59104;BME280;51449;51.676;5.812;2023-03-30T00:48:54;100505.97;;;13.64;67.98
59104;BME280;51449;51.676;5.812;2023-03-30T00:51:18;100494.16;;;13.67;68.01
59104;BME280;51449;51.676;5.812;2023-03-30T00:53:41;100485.50;;;13.69;67.83
59104;BME280;51449;51.676;5.812;2023-03-30T00:56:08;100487.09;;;13.70;67.81
59104;BME280;51449;51.676;5.812;2023-03-30T00:58:34;100480.31;;;13.67;67.75
59104;BME280;51449;51.676;5.812;2023-03-30T01:00:58;100469.91;;;13.61;67.74
59104;BME280;51449;51.676;5.812;2023-03-30T01:03:26;100470.25;;;13.59;67.74
59104;BME280;51449;51.676;5.812;2023-03-30T01:05:50;100465.91;;;13.58;67.52
59104;BME280;51449;51.676;5.812;2023-03-30T01:08:14;100452.78;;;13.55;67.51
59104;BME280;51449;51.676;5.812;2023-03-30T01:10:37;100446.38;;;13.51;67.47
59104;BME280;51449;51.676;5.812;2023-03-30T01:12:58;100438.44;;;13.49;67.50
59104;BME280;51449;51.676;5.812;2023-03-30T01:15:21;100435.56;;;13.46;67.28
59104;BME280;51449;51.676;5.812;2023-03-30T01:17:52;100444.16;;;13.41;67.35
59104;BME280;51449;51.676;5.812;2023-03-30T01:26:33;100444.44;;;13.36;67.37
59104;BME280;51449;51.676;5.812;2023-03-30T01:44:40;100447.16;;;13.32;67.52
59104;BME280;51449;51.676;5.812;2023-03-30T01:47:16;100441.63;;;13.32;67.32
59104;BME280;51449;51.676;5.812;2023-03-30T01:50:04;100436.88;;;13.33;67.59
59104;BME280;51449;51.676;5.812;2023-03-30T01:52:36;100419.09;;;13.34;67.31
59104;BME280;51449;51.676;5.812;2023-03-30T01:55:02;100423.94;;;13.37;67.32
59104;BME280;51449;51.676;5.812;2023-03-30T01:57:38;100415.25;;;13.38;67.31
59104;BME280;51449;51.676;5.812;2023-03-30T02:00:08;100426.69;;;13.37;67.26
59104;BME280;51449;51.676;5.812;2023-03-30T02:02:35;100421.59;;;13.39;67.61
59104;BME280;51449;51.676;5.812;2023-03-30T02:04:58;100406.94;;;13.38;67.26
59104;BME280;51449;51.676;5.812;2023-03-30T02:07:24;100400.63;;;13.38;67.24
59104;BME280;51449;51.676;5.812;2023-03-30T02:09:50;100404.13;;;13.35;66.95
59104;BME280;51449;51.676;5.812;2023-03-30T02:12:16;100425.06;;;13.36;67.08
59104;BME280;51449;51.676;5.812;2023-03-30T02:14:40;100433.09;;;13.41;66.64
59104;BME280;51449;51.676;5.812;2023-03-30T02:17:04;100415.50;;;13.49;66.57
59104;BME280;51449;51.676;5.812;2023-03-30T02:19:32;100421.63;;;13.58;66.50
59104;BME280;51449;51.676;5.812;2023-03-30T02:21:54;100421.38;;;13.67;66.01
59104;BME280;51449;51.676;5.812;2023-03-30T02:24:20;100419.25;;;13.80;65.76
59104;BME280;51449;51.676;5.812;2023-03-30T02:26:49;100414.75;;;13.91;65.78
59104;BME280;51449;51.676;5.812;2023-03-30T02:29:12;100418.78;;;13.97;64.99
59104;BME280;51449;51.676;5.812;2023-03-30T02:31:36;100417.78;;;14.05;65.01
59104;BME280;51449;51.676;5.812;2023-03-30T02:34:15;100418.66;;;14.09;64.88
59104;BME280;51449;51.676;5.812;2023-03-30T02:37:07;100415.59;;;14.15;64.74
59104;BME280;51449;51.676;5.812;2023-03-30T02:39:40;100410.44;;;14.17;64.37
59104;BME280;51449;51.676;5.812;2023-03-30T02:47:52;100418.41;;;14.18;64.13
59104;BME280;51449;51.676;5.812;2023-03-30T02:56:41;100427.25;;;14.04;64.54
59104;BME280;51449;51.676;5.812;2023-03-30T02:59:10;100433.91;;;14.00;64.24
59104;BME280;51449;51.676;5.812;2023-03-30T03:01:44;100433.81;;;13.96;64.60
59104;BME280;51449;51.676;5.812;2023-03-30T03:04:12;100426.59;;;13.91;64.89
59104;BME280;51449;51.676;5.812;2023-03-30T03:06:54;100424.59;;;13.88;65.08
59104;BME280;51449;51.676;5.812;2023-03-30T03:09:16;100423.34;;;13.86;64.95
59104;BME280;51449;51.676;5.812;2023-03-30T03:11:37;100430.47;;;13.87;65.19
59104;BME280;51449;51.676;5.812;2023-03-30T03:14:00;100421.38;;;13.86;65.32
59104;BME280;51449;51.676;5.812;2023-03-30T03:16:25;100432.81;;;13.85;65.39
59104;BME280;51449;51.676;5.812;2023-03-30T03:19:02;100421.72;;;13.85;65.53
59104;BME280;51449;51.676;5.812;2023-03-30T03:21:25;100413.00;;;13.83;65.66
59104;BME280;51449;51.676;5.812;2023-03-30T03:23:46;100412.28;;;13.86;65.40
59104;BME280;51449;51.676;5.812;2023-03-30T03:26:11;100419.78;;;13.85;65.78
59104;BME280;51449;51.676;5.812;2023-03-30T03:28:34;100420.13;;;13.84;65.89
59104;BME280;51449;51.676;5.812;2023-03-30T03:31:00;100420.88;;;13.81;65.92
59104;BME280;51449;51.676;5.812;2023-03-30T03:33:23;100429.25;;;13.84;65.95
59104;BME280;51449;51.676;5.812;2023-03-30T03:36:05;100418.25;;;13.88;65.43
59104;BME280;51449;51.676;5.812;2023-03-30T03:38:30;100419.47;;;13.90;65.70
59104;BME280;51449;51.676;5.812;2023-03-30T03:40:55;100426.25;;;13.93;65.53
59104;BME280;51449;51.676;5.812;2023-03-30T03:43:18;100414.88;;;13.98;65.40
59104;BME280;51449;51.676;5.812;2023-03-30T03:45:41;100401.47;;;14.00;65.38
59104;BME280;51449;51.676;5.812;2023-03-30T03:48:04;100403.84;;;14.02;64.98
59104;BME280;51449;51.676;5.812;2023-03-30T03:50:39;100388.91;;;14.06;65.04
59104;BME280;51449;51.676;5.812;2023-03-30T03:53:02;100388.19;;;14.09;64.92
59104;BME280;51449;51.676;5.812;2023-03-30T03:55:24;100381.91;;;14.12;64.79
59104;BME280;51449;51.676;5.812;2023-03-30T03:57:46;100370.44;;;14.14;64.70
59104;BME280;51449;51.676;5.812;2023-03-30T04:00:07;100364.53;;;14.16;64.68
59104;BME280;51449;51.676;5.812;2023-03-30T04:02:43;100370.94;;;14.20;64.81
59104;BME280;51449;51.676;5.812;2023-03-30T04:05:06;100378.88;;;14.21;64.57
59104;BME280;51449;51.676;5.812;2023-03-30T04:07:30;100373.41;;;14.25;64.56
59104;BME280;51449;51.676;5.812;2023-03-30T04:09:52;100371.06;;;14.27;64.67
59104;BME280;51449;51.676;5.812;2023-03-30T04:12:34;100364.69;;;14.26;64.62
59104;BME280;51449;51.676;5.812;2023-03-30T04:15:19;100357.13;;;14.23;64.63
59104;BME280;51449;51.676;5.812;2023-03-30T04:17:55;100355.91;;;14.21;64.66
59104;BME280;51449;51.676;5.812;2023-03-30T04:20:40;100360.66;;;14.20;64.71
59104;BME280;51449;51.676;5.812;2023-03-30T04:23:22;100376.41;;;14.16;64.88
59104;BME280;51449;51.676;5.812;2023-03-30T04:26:09;100369.50;;;14.06;64.74
59104;BME280;51449;51.676;5.812;2023-03-30T04:28:46;100368.72;;;14.06;64.86
59104;BME280;51449;51.676;5.812;2023-03-30T04:31:30;100369.03;;;14.01;64.82
59104;BME280;51449;51.676;5.812;2023-03-30T04:34:01;100378.06;;;13.98;64.75
59104;BME280;51449;51.676;5.812;2023-03-30T04:36:34;100370.13;;;13.96;64.45
59104;BME280;51449;51.676;5.812;2023-03-30T04:39:19;100367.34;;;13.96;64.17
59104;BME280;51449;51.676;5.812;2023-03-30T04:42:00;100357.59;;;14.02;64.13
59104;BME280;51449;51.676;5.812;2023-03-30T04:44:44;100354.88;;;14.06;63.90
59104;BME280;51449;51.676;5.812;2023-03-30T04:47:35;100366.06;;;14.13;63.95
59104;BME280;51449;51.676;5.812;2023-03-30T04:50:19;100356.09;;;14.08;63.50
59104;BME280;51449;51.676;5.812;2023-03-30T04:52:59;100360.88;;;14.11;63.71
59104;BME280;51449;51.676;5.812;2023-03-30T04:55:53;100360.84;;;14.08;63.78
59104;BME280;51449;51.676;5.812;2023-03-30T04:58:20;100362.88;;;14.11;63.85
59104;BME280;51449;51.676;5.812;2023-03-30T05:00:55;100362.00;;;14.07;63.89
59104;BME280;51449;51.676;5.812;2023-03-30T05:03:35;100356.03;;;14.05;63.75
59104;BME280;51449;51.676;5.812;2023-03-30T05:06:15;100357.72;;;14.09;63.83
59104;BME280;51449;51.676;5.812;2023-03-30T05:09:04;100354.94;;;14.09;63.79
59104;BME280;51449;51.676;5.812;2023-03-30T05:11:55;100357.31;;;14.11;64.03
59104;BME280;51449;51.676;5.812;2023-03-30T05:14:35;100366.06;;;14.13;64.04
59104;BME280;51449;51.676;5.812;2023-03-30T05:17:15;100366.88;;;14.13;64.08
59104;BME280;51449;51.676;5.812;2023-03-30T05:19:52;100374.75;;;14.11;63.96
59104;BME280;51449;51.676;5.812;2023-03-30T05:22:25;100382.25;;;14.11;64.28
59104;BME280;51449;51.676;5.812;2023-03-30T05:24:55;100398.53;;;14.12;64.22
59104;BME280;51449;51.676;5.812;2023-03-30T05:27:40;100419.44;;;14.10;65.17
59104;BME280;51449;51.676;5.812;2023-03-30T05:30:12;100416.09;;;14.01;67.33
59104;BME280;51449;51.676;5.812;2023-03-30T05:33:09;100414.25;;;13.85;69.60
59104;BME280;51449;51.676;5.812;2023-03-30T05:36:03;100417.03;;;13.66;71.65
59104;BME280;51449;51.676;5.812;2023-03-30T05:38:37;100421.81;;;13.49;73.15
59104;BME280;51449;51.676;5.812;2023-03-30T05:41:18;100422.75;;;13.38;74.11
59104;BME280;51449;51.676;5.812;2023-03-30T05:43:54;100415.81;;;13.28;75.13
59104;BME280;51449;51.676;5.812;2023-03-30T05:46:27;100414.03;;;13.20;76.16
59104;BME280;51449;51.676;5.812;2023-03-30T05:49:09;100417.44;;;13.13;76.56
59104;BME280;51449;51.676;5.812;2023-03-30T05:51:44;100416.94;;;13.07;76.60
59104;BME280;51449;51.676;5.812;2023-03-30T05:54:44;100421.06;;;12.98;77.87
59104;BME280;51449;51.676;5.812;2023-03-30T05:57:25;100418.56;;;12.93;77.93
59104;BME280;51449;51.676;5.812;2023-03-30T05:59:56;100421.63;;;12.88;78.86
59104;BME280;51449;51.676;5.812;2023-03-30T06:02:38;100419.09;;;12.82;78.92
59104;BME280;51449;51.676;5.812;2023-03-30T06:05:06;100410.66;;;12.75;79.66
59104;BME280;51449;51.676;5.812;2023-03-30T06:07:28;100407.47;;;12.73;79.57
59104;BME280;51449;51.676;5.812;2023-03-30T06:09:50;100413.00;;;12.73;79.48
59104;BME280;51449;51.676;5.812;2023-03-30T06:12:19;100420.91;;;12.75;79.47
59104;BME280;51449;51.676;5.812;2023-03-30T06:14:41;100421.63;;;12.72;79.63
59104;BME280;51449;51.676;5.812;2023-03-30T06:17:37;100423.94;;;12.70;79.51
59104;BME280;51449;51.676;5.812;2023-03-30T06:19:59;100423.94;;;12.70;80.13
59104;BME280;51449;51.676;5.812;2023-03-30T06:22:21;100417.53;;;12.66;80.17
59104;BME280;51449;51.676;5.812;2023-03-30T06:24:57;100425.13;;;12.69;79.71
59104;BME280;51449;51.676;5.812;2023-03-30T06:27:19;100428.69;;;12.69;80.17
59104;BME280;51449;51.676;5.812;2023-03-30T06:29:41;100429.47;;;12.70;80.06
59104;BME280;51449;51.676;5.812;2023-03-30T06:32:04;100434.66;;;12.71;79.93
59104;BME280;51449;51.676;5.812;2023-03-30T06:34:55;100439.72;;;12.69;80.22
59104;BME280;51449;51.676;5.812;2023-03-30T06:37:19;100446.44;;;12.68;80.47
59104;BME280;51449;51.676;5.812;2023-03-30T06:39:43;100456.78;;;12.71;80.12
59104;BME280;51449;51.676;5.812;2023-03-30T06:42:06;100449.19;;;12.68;80.42
59104;BME280;51449;51.676;5.812;2023-03-30T06:44:55;100457.03;;;12.66;80.36
59104;BME280;51449;51.676;5.812;2023-03-30T06:47:17;100454.63;;;12.64;80.63
59104;BME280;51449;51.676;5.812;2023-03-30T06:49:40;100466.13;;;12.67;80.34
59104;BME280;51449;51.676;5.812;2023-03-30T06:52:22;100454.72;;;12.68;79.83
59104;BME280;51449;51.676;5.812;2023-03-30T06:54:44;100460.25;;;12.68;80.08
59104;BME280;51449;51.676;5.812;2023-03-30T06:57:05;100461.84;;;12.69;79.28
59104;BME280;51449;51.676;5.812;2023-03-30T06:59:28;100473.81;;;12.73;79.50
59104;BME280;51449;51.676;5.812;2023-03-30T07:02:20;100460.44;;;12.75;78.84
59104;BME280;51449;51.676;5.812;2023-03-30T07:05:01;100466.22;;;12.86;78.88
59104;BME280;51449;51.676;5.812;2023-03-30T07:07:33;100460.47;;;12.95;78.34
59104;BME280;51449;51.676;5.812;2023-03-30T07:09:55;100466.44;;;12.97;78.30
59104;BME280;51449;51.676;5.812;2023-03-30T07:12:17;100459.34;;;12.96;78.28
59104;BME280;51449;51.676;5.812;2023-03-30T07:14:40;100461.81;;;13.01;78.14
59104;BME280;51449;51.676;5.812;2023-03-30T07:17:02;100474.13;;;13.03;77.66
59104;BME280;51449;51.676;5.812;2023-03-30T07:19:24;100471.28;;;13.00;77.44
59104;BME280;51449;51.676;5.812;2023-03-30T07:21:45;100466.63;;;13.04;77.29
59104;BME280;51449;51.676;5.812;2023-03-30T07:24:10;100475.38;;;13.06;77.11
59104;BME280;51449;51.676;5.812;2023-03-30T07:26:33;100483.84;;;13.13;76.74
59104;BME280;51449;51.676;5.812;2023-03-30T07:29:01;100466.97;;;13.18;77.13
59104;BME280;51449;51.676;5.812;2023-03-30T07:31:23;100486.78;;;13.20;76.61
59104;BME280;51449;51.676;5.812;2023-03-30T07:33:45;100484.19;;;13.27;76.60
59104;BME280;51449;51.676;5.812;2023-03-30T07:36:11;100484.44;;;13.38;76.54
59104;BME280;51449;51.676;5.812;2023-03-30T07:38:33;100481.47;;;13.47;76.03
59104;BME280;51449;51.676;5.812;2023-03-30T07:40:54;100475.00;;;13.59;75.90
59104;BME280;51449;51.676;5.812;2023-03-30T07:43:17;100469.78;;;13.73;75.44
59104;BME280;51449;51.676;5.812;2023-03-30T07:45:39;100484.31;;;13.89;75.07
59104;BME280;51449;51.676;5.812;2023-03-30T07:48:04;100490.16;;;14.04;74.27
59104;BME280;51449;51.676;5.812;2023-03-30T07:50:26;100477.63;;;14.10;72.69
59104;BME280;51449;51.676;5.812;2023-03-30T07:52:50;100488.09;;;14.20;72.69
59104;BME280;51449;51.676;5.812;2023-03-30T07:55:12;100485.22;;;14.36;72.33
59104;BME280;51449;51.676;5.812;2023-03-30T07:57:41;100493.81;;;14.50;71.60
59104;BME280;51449;51.676;5.812;2023-03-30T08:00:03;100499.63;;;14.65;70.94
59104;BME280;51449;51.676;5.812;2023-03-30T08:02:44;100506.53;;;14.74;70.51
59104;BME280;51449;51.676;5.812;2023-03-30T08:05:10;100506.97;;;14.76;69.55
59104;BME280;51449;51.676;5.812;2023-03-30T08:07:55;100508.81;;;14.69;68.85
59104;BME280;51449;51.676;5.812;2023-03-30T08:10:22;100509.50;;;14.62;69.13
59104;BME280;51449;51.676;5.812;2023-03-30T08:12:46;100518.59;;;14.63;69.42
59104;BME280;51449;51.676;5.812;2023-03-30T08:15:08;100518.91;;;14.58;69.51
59104;BME280;51449;51.676;5.812;2023-03-30T08:17:30;100512.56;;;14.57;69.40
59104;BME280;51449;51.676;5.812;2023-03-30T08:19:52;100508.09;;;14.52;68.67
59104;BME280;51449;51.676;5.812;2023-03-30T08:22:13;100510.88;;;14.52;69.15
59104;BME280;51449;51.676;5.812;2023-03-30T08:24:54;100517.31;;;14.57;69.28
59104;BME280;51449;51.676;5.812;2023-03-30T08:27:34;100523.63;;;14.53;69.34
59104;BME280;51449;51.676;5.812;2023-03-30T08:29:56;100526.00;;;14.55;69.18
59104;BME280;51449;51.676;5.812;2023-03-30T08:32:18;100523.66;;;14.57;69.36
59104;BME280;51449;51.676;5.812;2023-03-30T08:34:39;100527.22;;;14.58;69.02
59104;BME280;51449;51.676;5.812;2023-03-30T08:37:04;100535.09;;;14.55;68.71
59104;BME280;51449;51.676;5.812;2023-03-30T08:39:27;100527.97;;;14.54;68.98
59104;BME280;51449;51.676;5.812;2023-03-30T08:44:51;100533.28;;;14.63;68.66
59104;BME280;51449;51.676;5.812;2023-03-30T08:47:18;100530.88;;;14.62;67.97
59104;BME280;51449;51.676;5.812;2023-03-30T08:49:54;100535.63;;;14.61;67.71
59104;BME280;51449;51.676;5.812;2023-03-30T08:52:22;100531.69;;;14.62;67.15
59104;BME280;51449;51.676;5.812;2023-03-30T08:54:45;100540.91;;;14.70;66.86
59104;BME280;51449;51.676;5.812;2023-03-30T09:00:15;100532.72;;;14.77;66.60
59104;BME280;51449;51.676;5.812;2023-03-30T09:05:54;100526.94;;;14.86;65.37
59104;BME280;51449;51.676;5.812;2023-03-30T09:08:25;100534.81;;;15.07;65.44
59104;BME280;51449;51.676;5.812;2023-03-30T09:10:59;100517.66;;;15.24;64.87
59104;BME280;51449;51.676;5.812;2023-03-30T09:13:30;100533.50;;;15.50;64.56
59104;BME280;51449;51.676;5.812;2023-03-30T09:15:59;100527.72;;;15.62;64.10
59104;BME280;51449;51.676;5.812;2023-03-30T09:18:46;100534.94;;;15.67;62.72
59104;BME280;51449;51.676;5.812;2023-03-30T09:21:31;100542.72;;;15.58;61.47
59104;BME280;51449;51.676;5.812;2023-03-30T09:23:54;100531.44;;;15.44;60.77
59104;BME280;51449;51.676;5.812;2023-03-30T09:26:33;100530.19;;;15.41;61.91
59104;BME280;51449;51.676;5.812;2023-03-30T09:29:10;100547.13;;;15.59;62.18
59104;BME280;51449;51.676;5.812;2023-03-30T09:31:43;100550.00;;;15.66;60.03
59104;BME280;51449;51.676;5.812;2023-03-30T09:36:59;100560.69;;;15.64;60.14
59104;BME280;51449;51.676;5.812;2023-03-30T09:39:26;100561.44;;;15.61;60.73
59104;BME280;51449;51.676;5.812;2023-03-30T09:44:25;100578.94;;;15.38;60.27
59104;BME280;51449;51.676;5.812;2023-03-30T09:46:51;100585.22;;;15.35;60.57
59104;BME280;51449;51.676;5.812;2023-03-30T09:49:17;100566.47;;;15.29;60.40
59104;BME280;51449;51.676;5.812;2023-03-30T09:51:51;100576.75;;;15.25;60.93
59104;BME280;51449;51.676;5.812;2023-03-30T09:54:17;100579.56;;;15.28;61.31
59104;BME280;51449;51.676;5.812;2023-03-30T09:56:42;100584.38;;;15.31;60.65
59104;BME280;51449;51.676;5.812;2023-03-30T09:59:33;100580.88;;;15.61;61.25
59104;BME280;51449;51.676;5.812;2023-03-30T10:02:09;100581.16;;;15.79;59.74
59104;BME280;51449;51.676;5.812;2023-03-30T10:07:19;100577.38;;;15.94;59.16
59104;BME280;51449;51.676;5.812;2023-03-30T10:09:44;100572.66;;;15.95;58.24
59104;BME280;51449;51.676;5.812;2023-03-30T10:12:06;100579.34;;;15.90;58.42
59104;BME280;51449;51.676;5.812;2023-03-30T10:14:33;100595.69;;;15.95;58.88
59104;BME280;51449;51.676;5.812;2023-03-30T10:16:56;100597.94;;;16.16;59.17
59104;BME280;51449;51.676;5.812;2023-03-30T10:19:19;100596.13;;;16.31;58.05
59104;BME280;51449;51.676;5.812;2023-03-30T10:21:43;100591.47;;;16.39;56.35
59104;BME280;51449;51.676;5.812;2023-03-30T10:24:26;100598.88;;;16.27;56.19
59104;BME280;51449;51.676;5.812;2023-03-30T10:26:57;100610.41;;;16.30;56.16
59104;BME280;51449;51.676;5.812;2023-03-30T10:29:25;100594.44;;;16.23;55.77
59104;BME280;51449;51.676;5.812;2023-03-30T10:31:50;100603.00;;;16.07;55.65
59104;BME280;51449;51.676;5.812;2023-03-30T10:34:22;100604.06;;;15.99;56.64
59104;BME280;51449;51.676;5.812;2023-03-30T10:36:55;100595.69;;;15.95;56.92
59104;BME280;51449;51.676;5.812;2023-03-30T10:39:22;100598.78;;;15.90;56.71
59104;BME280;51449;51.676;5.812;2023-03-30T10:41:48;100583.69;;;15.88;56.87
59104;BME280;51449;51.676;5.812;2023-03-30T10:44:16;100593.69;;;15.96;57.41
59104;BME280;51449;51.676;5.812;2023-03-30T10:46:42;100601.56;;;16.20;58.00
59104;BME280;51449;51.676;5.812;2023-03-30T10:49:21;100581.94;;;16.40;56.68
59104;BME280;51449;51.676;5.812;2023-03-30T10:52:04;100594.72;;;16.48;56.15
59104;BME280;51449;51.676;5.812;2023-03-30T10:54:58;100597.34;;;16.67;56.35
59104;BME280;51449;51.676;5.812;2023-03-30T11:03:11;100601.31;;;17.04;54.42
59104;BME280;51449;51.676;5.812;2023-03-30T11:05:44;100585.81;;;17.06;52.89
59104;BME280;51449;51.676;5.812;2023-03-30T11:08:19;100595.38;;;17.09;52.23
59104;BME280;51449;51.676;5.812;2023-03-30T11:10:48;100592.16;;;17.03;53.69
59104;BME280;51449;51.676;5.812;2023-03-30T11:13:17;100596.09;;;16.99;53.07
59104;BME280;51449;51.676;5.812;2023-03-30T11:15:53;100601.22;;;16.93;53.65
59104;BME280;51449;51.676;5.812;2023-03-30T11:26:08;100594.72;;;17.23;52.94
59104;BME280;51449;51.676;5.812;2023-03-30T11:28:38;100592.34;;;17.25;51.66
59104;BME280;51449;51.676;5.812;2023-03-30T11:31:05;100585.66;;;17.33;52.37
59104;BME280;51449;51.676;5.812;2023-03-30T11:33:40;100574.94;;;17.35;51.57
59104;BME280;51449;51.676;5.812;2023-03-30T11:36:13;100574.88;;;17.28;51.24
59104;BME280;51449;51.676;5.812;2023-03-30T11:38:45;100606.47;;;17.46;52.36
59104;BME280;51449;51.676;5.812;2023-03-30T11:41:15;100583.88;;;17.62;51.36
59104;BME280;51449;51.676;5.812;2023-03-30T11:43:43;100588.41;;;17.81;51.49
59104;BME280;51449;51.676;5.812;2023-03-30T11:51:10;100576.97;;;18.01;49.41
59104;BME280;51449;51.676;5.812;2023-03-30T12:00:01;100583.34;;;17.98;48.58
59104;BME280;51449;51.676;5.812;2023-03-30T12:02:33;100575.38;;;18.00;48.36
59104;BME280;51449;51.676;5.812;2023-03-30T12:05:18;100592.78;;;17.82;49.45
59104;BME280;51449;51.676;5.812;2023-03-30T12:07:49;100596.66;;;17.67;50.27
59104;BME280;51449;51.676;5.812;2023-03-30T12:10:30;100605.63;;;17.42;51.87
59104;BME280;51449;51.676;5.812;2023-03-30T12:13:02;100604.22;;;17.15;53.05
59104;BME280;51449;51.676;5.812;2023-03-30T12:20:54;100605.94;;;17.33;55.34
59104;BME280;51449;51.676;5.812;2023-03-30T12:23:35;100606.34;;;17.32;54.80
59104;BME280;51449;51.676;5.812;2023-03-30T12:28:38;100614.56;;;17.18;53.60
59104;BME280;51449;51.676;5.812;2023-03-30T12:34:09;100621.56;;;17.01;54.41
59104;BME280;51449;51.676;5.812;2023-03-30T12:38:58;100607.22;;;16.95;55.07
59104;BME280;51449;51.676;5.812;2023-03-30T12:41:23;100603.78;;;17.13;55.05
59104;BME280;51449;51.676;5.812;2023-03-30T12:44:51;100605.50;;;17.28;54.53
59104;BME280;51449;51.676;5.812;2023-03-30T12:47:35;100607.56;;;17.35;54.04
59104;BME280;51449;51.676;5.812;2023-03-30T13:06:51;100591.44;;;17.62;51.59
59104;BME280;51449;51.676;5.812;2023-03-30T13:08:56;100586.13;;;17.46;50.39
59104;BME280;51449;51.676;5.812;2023-03-30T13:12:06;100588.44;;;17.33;50.54
59104;BME280;51449;51.676;5.812;2023-03-30T13:14:26;100595.50;;;17.20;50.83
59104;BME280;51449;51.676;5.812;2023-03-30T13:17:15;100601.72;;;17.02;51.21
59104;BME280;51449;51.676;5.812;2023-03-30T13:20:02;100623.44;;;16.89;51.17
59104;BME280;51449;51.676;5.812;2023-03-30T13:22:57;100606.72;;;16.86;51.12
59104;BME280;51449;51.676;5.812;2023-03-30T13:25:26;100610.34;;;16.90;51.73
59104;BME280;51449;51.676;5.812;2023-03-30T13:27:57;100601.31;;;17.04;51.72
59104;BME280;51449;51.676;5.812;2023-03-30T13:30:20;100588.84;;;17.31;51.40
59104;BME280;51449;51.676;5.812;2023-03-30T13:32:47;100596.13;;;17.50;51.53
59104;BME280;51449;51.676;5.812;2023-03-30T13:35:50;100591.31;;;17.44;51.12
59104;BME280;51449;51.676;5.812;2023-03-30T13:38:44;100596.00;;;17.36;51.10
59104;BME280;51449;51.676;5.812;2023-03-30T13:41:22;100594.84;;;17.41;51.33
59104;BME280;51449;51.676;5.812;2023-03-30T13:49:29;100574.47;;;17.81;50.96
59104;BME280;51449;51.676;5.812;2023-03-30T13:52:17;100577.19;;;17.70;51.34
59104;BME280;51449;51.676;5.812;2023-03-30T13:54:48;100558.94;;;17.80;50.05
59104;BME280;51449;51.676;5.812;2023-03-30T13:57:11;100558.16;;;17.83;51.11
59104;BME280;51449;51.676;5.812;2023-03-30T13:59:40;100562.06;;;17.75;49.77
59104;BME280;51449;51.676;5.812;2023-03-30T14:02:05;100565.59;;;17.65;49.68
59104;BME280;51449;51.676;5.812;2023-03-30T14:04:33;100567.09;;;17.55;49.55
59104;BME280;51449;51.676;5.812;2023-03-30T14:07:02;100567.91;;;17.55;49.49
59104;BME280;51449;51.676;5.812;2023-03-30T14:09:26;100574.25;;;17.49;50.05
59104;BME280;51449;51.676;5.812;2023-03-30T14:11:49;100564.72;;;17.53;50.91
59104;BME280;51449;51.676;5.812;2023-03-30T14:14:25;100564.72;;;17.53;50.85
59104;BME280;51449;51.676;5.812;2023-03-30T14:16:59;100568.69;;;17.52;50.68
59104;BME280;51449;51.676;5.812;2023-03-30T14:19:23;100567.03;;;17.44;51.27
59104;BME280;51449;51.676;5.812;2023-03-30T14:21:48;100611.91;;;17.32;51.05
59104;BME280;51449;51.676;5.812;2023-03-30T14:24:14;100638.34;;;17.08;55.63
59104;BME280;51449;51.676;5.812;2023-03-30T14:26:38;100630.16;;;16.51;57.58
59104;BME280;51449;51.676;5.812;2023-03-30T14:29:02;100625.22;;;16.07;60.51
59104;BME280;51449;51.676;5.812;2023-03-30T14:31:37;100615.13;;;15.95;63.66
59104;BME280;51449;51.676;5.812;2023-03-30T14:34:00;100611.47;;;15.88;64.76
59104;BME280;51449;51.676;5.812;2023-03-30T14:36:21;100606.31;;;15.90;64.90
59104;BME280;51449;51.676;5.812;2023-03-30T14:38:44;100606.41;;;15.97;64.71
59104;BME280;51449;51.676;5.812;2023-03-30T14:43:38;100599.06;;;16.12;65.29
59104;BME280;51449;51.676;5.812;2023-03-30T14:46:02;100599.56;;;16.21;65.05
59104;BME280;51449;51.676;5.812;2023-03-30T14:48:33;100602.44;;;16.28;64.99
59104;BME280;51449;51.676;5.812;2023-03-30T14:50:59;100617.63;;;16.34;65.49
59104;BME280;51449;51.676;5.812;2023-03-30T14:53:23;100604.53;;;16.35;64.73
59104;BME280;51449;51.676;5.812;2023-03-30T14:55:47;100610.75;;;16.24;63.51
59104;BME280;51449;51.676;5.812;2023-03-30T14:58:11;100599.81;;;16.09;63.37
59104;BME280;51449;51.676;5.812;2023-03-30T15:00:36;100599.31;;;16.30;63.43